Time;durP1;ratioP1;P1;durP2;ratioP2;P2;SDS_P1;SDS_P2;PMS_P1;PMS_P2;Temp;Humidity;BMP_temperature;BMP_pressure;BME280_temperature;BME280_humidity;BME280_pressure;Samples;Min_cycle;Max_cycle;Signal;HPM_P1;HPM_P2
2021/01/16 10:07:10;;;;;;;21.15;12.13;;;2.40;91.60;;;;;;5141281;27;27399;-52
2021/01/16 10:09:56;;;;;;;21.38;12.88;;;2.50;91.70;;;;;;5142457;27;27351;-48
2021/01/16 10:12:41;;;;;;;23.77;13.30;;;2.70;91.20;;;;;;5127744;27;27328;-46
2021/01/16 10:15:30;;;;;;;21.17;12.43;;;2.90;90.60;;;;;;5142672;27;27418;-48
2021/01/16 10:18:18;;;;;;;22.50;12.48;;;3.10;90.00;;;;;;5142337;27;27446;-48
2021/01/16 10:21:10;;;;;;;18.48;12.30;;;3.30;89.00;;;;;;5142266;27;27426;-48
2021/01/16 10:23:55;;;;;;;22.77;11.75;;;3.60;87.70;;;;;;5142545;27;27567;-48
2021/01/16 10:26:39;;;;;;;16.73;11.75;;;3.80;86.50;;;;;;5141235;27;27339;-48
2021/01/16 10:29:34;;;;;;;18.05;11.52;;;4.00;85.40;;;;;;5141462;27;27444;-49
2021/01/16 10:32:23;;;;;;;21.38;12.15;;;4.20;84.40;;;;;;5141421;27;27414;-46
2021/01/16 10:35:08;;;;;;;18.05;11.13;;;4.30;83.80;;;;;;5141844;27;27432;-48
2021/01/16 10:38:00;;;;;;;18.02;12.18;;;4.30;83.30;;;;;;5139051;27;27457;-47
2021/01/16 10:40:50;;;;;;;21.88;12.95;;;4.40;83.10;;;;;;5142002;27;27461;-49
2021/01/16 10:43:36;;;;;;;20.02;12.07;;;4.50;82.40;;;;;;5142172;27;27377;-48
2021/01/16 10:46:30;;;;;;;19.30;11.75;;;4.80;81.40;;;;;;5141635;27;27366;-48
2021/01/16 10:49:15;;;;;;;17.15;11.82;;;5.00;80.60;;;;;;5141875;27;27444;-50
2021/01/16 10:52:03;;;;;;;19.27;12.45;;;5.20;79.50;;;;;;5142064;27;27393;-50
2021/01/16 10:55:00;;;;;;;20.45;12.77;;;5.50;78.80;;;;;;5141941;27;27442;-50
2021/01/16 10:57:48;;;;;;;20.63;12.88;;;5.60;78.00;;;;;;5141068;27;27344;-48
2021/01/16 11:00:42;;;;;;;16.48;11.45;;;5.90;77.40;;;;;;5137854;27;27425;-48
2021/01/16 11:03:32;;;;;;;18.50;13.02;;;6.00;76.70;;;;;;5141315;27;27445;-49
2021/01/16 11:06:17;;;;;;;19.67;12.05;;;6.20;76.60;;;;;;5140105;27;27403;-48
2021/01/16 11:09:01;;;;;;;21.60;13.25;;;6.30;76.10;;;;;;5126555;27;26962;-51
2021/01/16 11:11:47;;;;;;;17.25;12.15;;;6.40;75.70;;;;;;5123101;27;27386;-51
2021/01/16 11:14:42;;;;;;;16.80;11.77;;;6.50;75.50;;;;;;5141382;27;27960;-48
2021/01/16 11:17:59;;;;;;;19.10;12.75;;;6.70;75.50;;;;;;5132477;27;27370;-48
2021/01/16 11:20:49;;;;;;;19.77;12.57;;;6.80;75.20;;;;;;5117502;27;27344;-51
2021/01/16 11:23:45;;;;;;;19.38;13.25;;;6.90;75.20;;;;;;5127561;27;27405;-49
2021/01/16 11:26:29;;;;;;;18.25;12.32;;;7.10;75.70;;;;;;5126648;27;27840;-47
2021/01/16 11:29:20;;;;;;;19.15;12.82;;;7.20;74.40;;;;;;5112420;27;27473;-50
2021/01/16 11:32:12;;;;;;;19.85;13.07;;;7.30;73.80;;;;;;5124441;27;27475;-48
2021/01/16 11:35:02;;;;;;;18.30;12.27;;;7.40;73.60;;;;;;5127622;27;27382;-47
2021/01/16 11:37:51;;;;;;;20.00;12.98;;;7.50;73.00;;;;;;5127525;27;27480;-49
2021/01/16 11:40:37;;;;;;;17.50;11.63;;;7.60;72.60;;;;;;5127503;27;27437;-48
2021/01/16 11:43:25;;;;;;;18.65;12.55;;;7.70;72.40;;;;;;5112296;27;27333;-47
2021/01/16 11:46:11;;;;;;;18.65;13.07;;;7.80;72.20;;;;;;5126876;27;27430;-49
2021/01/16 11:48:55;;;;;;;18.15;12.23;;;7.90;72.00;;;;;;5127078;27;27465;-49
2021/01/16 11:51:40;;;;;;;17.58;12.52;;;8.00;71.70;;;;;;5126522;27;27430;-48
2021/01/16 11:54:27;;;;;;;20.98;13.50;;;8.00;71.70;;;;;;5127028;27;27357;-47
2021/01/16 11:57:13;;;;;;;18.60;12.75;;;8.10;72.10;;;;;;5126719;27;27327;-51
2021/01/16 11:59:57;;;;;;;18.90;13.27;;;8.20;71.30;;;;;;5126357;27;27864;-48
2021/01/16 12:02:46;;;;;;;19.63;12.82;;;8.30;71.00;;;;;;5126032;27;27480;-48
2021/01/16 12:05:31;;;;;;;19.95;13.10;;;8.40;71.00;;;;;;5126464;27;27331;-48
2021/01/16 12:08:15;;;;;;;18.30;12.25;;;8.40;70.90;;;;;;5127049;27;27391;-47
2021/01/16 12:11:00;;;;;;;18.15;12.65;;;8.40;70.50;;;;;;5111516;27;27871;-53
2021/01/16 12:13:49;;;;;;;17.02;12.25;;;8.50;70.40;;;;;;5111862;27;27344;-49
2021/01/16 12:16:33;;;;;;;17.65;12.02;;;8.60;70.40;;;;;;5127019;27;27401;-44
2021/01/16 12:19:18;;;;;;;16.67;11.77;;;8.60;70.00;;;;;;5126612;27;27384;-49
2021/01/16 12:22:10;;;;;;;16.92;11.60;;;8.60;69.90;;;;;;5111320;27;28063;-49
2021/01/16 12:24:55;;;;;;;15.75;11.45;;;8.70;70.10;;;;;;5125985;27;28537;-50
2021/01/16 12:27:48;;;;;;;16.83;11.38;;;8.70;70.00;;;;;;5123006;27;27409;-52
2021/01/16 12:30:38;;;;;;;17.77;12.32;;;8.70;70.00;;;;;;5125802;27;27437;-50
2021/01/16 12:33:23;;;;;;;15.65;11.10;;;8.70;69.70;;;;;;5126381;27;27840;-48
2021/01/16 12:36:08;;;;;;;15.70;10.93;;;8.60;69.60;;;;;;5126123;27;27353;-49
2021/01/16 12:38:53;;;;;;;16.30;11.07;;;8.60;70.20;;;;;;5122270;27;27421;-49
2021/01/16 12:41:39;;;;;;;14.32;10.85;;;8.60;70.10;;;;;;5126342;27;27386;-48
2021/01/16 12:44:24;;;;;;;15.63;10.23;;;8.50;70.20;;;;;;5110780;27;27388;-48
2021/01/16 12:47:13;;;;;;;13.75;10.63;;;8.50;70.40;;;;;;5125900;27;27362;-49
2021/01/16 12:49:58;;;;;;;14.98;10.18;;;8.50;70.30;;;;;;5125981;27;27468;-49
2021/01/16 12:52:50;;;;;;;15.20;10.48;;;8.40;70.70;;;;;;5110230;27;27418;-45
2021/01/16 12:55:34;;;;;;;13.13;9.52;;;8.40;70.70;;;;;;5125824;27;27872;-46
2021/01/16 12:58:19;;;;;;;13.63;10.52;;;8.30;70.70;;;;;;5125977;27;27382;-48
2021/01/16 13:01:04;;;;;;;13.68;9.70;;;8.40;70.90;;;;;;5124985;27;27425;-51
2021/01/16 13:03:48;;;;;;;13.77;10.23;;;8.30;70.90;;;;;;5125963;27;27265;-49
2021/01/16 13:06:35;;;;;;;15.35;10.27;;;8.30;71.00;;;;;;5124141;27;27347;-49
2021/01/16 13:09:20;;;;;;;15.18;10.15;;;8.30;70.80;;;;;;5125844;27;27451;-51
2021/01/16 13:12:06;;;;;;;15.15;10.18;;;8.30;70.90;;;;;;5125777;27;27510;-50
2021/01/16 13:14:54;;;;;;;14.25;9.93;;;8.30;70.50;;;;;;5125588;27;27448;-51
2021/01/16 13:17:44;;;;;;;15.70;10.23;;;8.30;71.30;;;;;;5125413;27;27428;-50
2021/01/16 13:20:29;;;;;;;14.32;9.65;;;8.30;70.70;;;;;;5123665;27;27397;-51
2021/01/16 13:23:16;;;;;;;13.95;9.63;;;8.30;71.00;;;;;;5125524;27;27413;-49
2021/01/16 13:26:00;;;;;;;13.43;9.80;;;8.20;71.10;;;;;;5124476;27;27436;-50
2021/01/16 13:28:45;;;;;;;10.80;8.48;;;8.20;71.20;;;;;;5125680;27;27453;-48
2021/01/16 13:31:30;;;;;;;12.27;9.45;;;8.10;71.50;;;;;;5125453;27;27468;-48
2021/01/16 13:34:15;;;;;;;11.02;8.27;;;8.00;71.90;;;;;;5124741;27;27488;-50
2021/01/16 13:37:00;;;;;;;15.30;8.85;;;7.90;71.90;;;;;;5125511;27;27377;-48
2021/01/16 13:39:45;;;;;;;16.25;10.32;;;7.80;72.20;;;;;;5125048;27;27427;-49
2021/01/16 13:42:31;;;;;;;14.75;9.73;;;7.80;72.60;;;;;;5110093;27;27450;-47
2021/01/16 13:45:20;;;;;;;15.00;9.23;;;7.60;72.80;;;;;;5124253;27;27460;-49
2021/01/16 13:48:05;;;;;;;15.10;10.52;;;7.50;73.00;;;;;;5125206;27;27442;-48
2021/01/16 13:50:50;;;;;;;15.93;11.05;;;7.40;73.50;;;;;;5125134;27;27417;-48
2021/01/16 13:53:34;;;;;;;16.33;10.77;;;7.30;73.80;;;;;;5125399;27;27491;-43
2021/01/16 13:56:20;;;;;;;18.42;12.55;;;7.10;74.30;;;;;;5124766;27;27477;-48
2021/01/16 13:59:04;;;;;;;17.55;11.30;;;7.00;74.90;;;;;;5125360;27;27445;-50
2021/01/16 14:01:50;;;;;;;16.77;11.02;;;6.90;75.20;;;;;;5124256;27;27436;-49
2021/01/16 14:04:41;;;;;;;17.45;11.15;;;6.70;75.70;;;;;;5125255;27;27502;-48
2021/01/16 14:07:27;;;;;;;17.90;11.90;;;6.60;76.10;;;;;;5124674;27;27492;-49
2021/01/16 14:10:26;;;;;;;18.55;11.63;;;6.50;76.40;;;;;;5125247;27;27410;-48
2021/01/16 14:13:17;;;;;;;17.30;11.15;;;6.40;76.50;;;;;;5124644;27;27359;-48
2021/01/16 14:16:06;;;;;;;17.75;11.30;;;6.30;76.80;;;;;;5125105;27;27402;-48
2021/01/16 14:18:51;;;;;;;18.30;11.05;;;6.20;76.90;;;;;;5125089;27;27382;-51
2021/01/16 14:21:36;;;;;;;16.83;11.18;;;6.10;77.20;;;;;;5123995;27;27332;-48
2021/01/16 14:24:20;;;;;;;17.05;10.82;;;6.00;77.50;;;;;;5124675;27;27405;-51
2021/01/16 14:27:05;;;;;;;17.95;10.35;;;5.90;77.80;;;;;;5124678;27;27733;-50
2021/01/16 14:29:50;;;;;;;17.25;11.35;;;5.90;78.10;;;;;;5124748;27;27474;-48
2021/01/16 14:32:35;;;;;;;16.27;10.80;;;5.70;78.40;;;;;;5124966;27;27445;-47
2021/01/16 14:35:21;;;;;;;18.23;12.38;;;5.70;78.70;;;;;;5124880;27;27376;-49
2021/01/16 14:38:07;;;;;;;22.83;12.30;;;5.50;78.90;;;;;;5124598;27;27406;-48
2021/01/16 14:40:52;;;;;;;18.50;12.70;;;5.50;79.20;;;;;;5121219;27;27339;-44
2021/01/16 14:43:38;;;;;;;20.20;12.38;;;5.40;79.20;;;;;;5124758;27;27341;-49
2021/01/16 14:46:23;;;;;;;20.70;13.07;;;5.30;79.60;;;;;;5120895;27;27424;-48
2021/01/16 14:49:08;;;;;;;22.70;13.25;;;5.10;79.90;;;;;;5121123;27;27304;-49
2021/01/16 14:52:03;;;;;;;18.13;11.98;;;5.10;80.20;;;;;;5125446;27;27403;-50
2021/01/16 14:55:00;;;;;;;21.52;13.13;;;5.00;80.40;;;;;;5127567;27;27332;-48
2021/01/16 14:57:46;;;;;;;19.85;12.65;;;4.90;80.40;;;;;;5127793;27;27446;-49
2021/01/16 15:00:32;;;;;;;23.52;13.23;;;4.80;80.90;;;;;;5127785;27;27409;-48
2021/01/16 15:03:28;;;;;;;20.27;12.68;;;4.80;81.10;;;;;;5127889;27;27532;-48
2021/01/16 15:06:13;;;;;;;23.33;13.05;;;4.70;81.30;;;;;;5125986;27;27577;-48
2021/01/16 15:09:00;;;;;;;21.40;12.38;;;4.60;81.60;;;;;;5126928;27;27484;-48
2021/01/16 15:11:55;;;;;;;20.63;12.63;;;4.50;81.90;;;;;;5127678;27;27414;-48
2021/01/16 15:14:41;;;;;;;24.63;13.65;;;4.40;82.10;;;;;;5127714;27;27464;-49
2021/01/16 15:17:26;;;;;;;21.67;13.07;;;4.20;82.30;;;;;;5127918;27;26912;-48
2021/01/16 15:20:10;;;;;;;22.45;14.07;;;4.10;82.60;;;;;;5127764;27;27343;-48
2021/01/16 15:22:55;;;;;;;24.42;13.32;;;4.00;82.80;;;;;;5127549;27;27361;-48
2021/01/16 15:25:40;;;;;;;21.30;13.57;;;3.90;83.20;;;;;;5127387;27;27414;-48
2021/01/16 15:28:25;;;;;;;23.85;14.88;;;3.80;83.50;;;;;;5127751;27;27343;-52
2021/01/16 15:31:10;;;;;;;24.92;14.38;;;3.70;83.60;;;;;;5127393;27;27408;-49
2021/01/16 15:33:56;;;;;;;21.27;13.10;;;3.60;84.00;;;;;;5127211;27;27406;-48
2021/01/16 15:36:40;;;;;;;20.63;12.60;;;3.50;84.10;;;;;;5127649;27;27417;-48
2021/01/16 15:39:25;;;;;;;22.65;14.25;;;3.40;84.60;;;;;;5127586;27;27378;-48
2021/01/16 15:42:36;;;;;;;22.98;14.15;;;3.30;84.90;;;;;;5127509;27;27981;-48
2021/01/16 15:45:21;;;;;;;23.75;14.30;;;3.20;85.10;;;;;;5122968;27;27506;-50
2021/01/16 15:48:18;;;;;;;22.02;14.00;;;3.00;85.20;;;;;;5127206;27;27497;-49
2021/01/16 15:51:03;;;;;;;25.45;14.60;;;3.00;85.20;;;;;;5127364;27;27389;-51
2021/01/16 15:53:47;;;;;;;26.08;14.90;;;2.80;85.50;;;;;;5127353;27;27560;-50
2021/01/16 15:56:32;;;;;;;24.13;14.95;;;2.60;85.90;;;;;;5127300;27;27418;-45
2021/01/16 15:59:17;;;;;;;25.98;14.95;;;2.50;86.00;;;;;;5123755;27;27414;-51
2021/01/16 16:02:02;;;;;;;25.23;15.20;;;2.30;86.70;;;;;;5126647;27;27391;-48
2021/01/16 16:04:47;;;;;;;23.48;15.13;;;2.20;87.00;;;;;;5111819;27;27449;-50
2021/01/16 16:07:45;;;;;;;26.50;15.20;;;2.00;88.00;;;;;;5127018;27;27456;-52
2021/01/16 16:10:29;;;;;;;27.30;15.05;;;1.90;88.30;;;;;;5126850;27;27489;-50
2021/01/16 16:13:14;;;;;;;29.15;16.45;;;1.80;89.20;;;;;;5126677;27;27461;-49
2021/01/16 16:15:59;;;;;;;29.13;15.57;;;1.70;89.50;;;;;;5126668;27;28049;-50
2021/01/16 16:18:44;;;;;;;34.85;17.40;;;1.60;89.90;;;;;;5126749;27;27434;-47
2021/01/16 16:21:29;;;;;;;32.63;18.23;;;1.60;90.10;;;;;;5126636;27;27473;-51
2021/01/16 16:24:15;;;;;;;35.70;19.02;;;1.50;90.00;;;;;;5126698;27;27398;-48
2021/01/16 16:27:00;;;;;;;30.42;16.88;;;1.40;90.30;;;;;;5126403;27;27476;-49
2021/01/16 16:29:44;;;;;;;30.52;17.55;;;1.40;90.40;;;;;;5125943;27;27633;-48
2021/01/16 16:32:29;;;;;;;30.50;17.75;;;1.30;90.60;;;;;;5126408;27;27455;-47
2021/01/16 16:35:14;;;;;;;35.10;18.42;;;1.20;90.50;;;;;;5126638;27;27452;-48
2021/01/16 16:38:00;;;;;;;34.83;18.40;;;1.20;90.60;;;;;;5126522;27;27406;-49
2021/01/16 16:40:46;;;;;;;33.72;17.85;;;1.10;90.70;;;;;;5126261;27;27456;-48
2021/01/16 16:43:33;;;;;;;34.38;18.15;;;1.10;90.80;;;;;;5125791;27;27397;-48
2021/01/16 16:46:18;;;;;;;30.65;17.50;;;1.00;90.90;;;;;;5126007;27;27351;-52
2021/01/16 16:49:03;;;;;;;35.33;17.75;;;1.00;90.90;;;;;;5126395;27;27327;-48
2021/01/16 16:51:51;;;;;;;31.63;17.65;;;0.90;91.00;;;;;;5126024;27;27421;-49
2021/01/16 16:54:35;;;;;;;36.15;18.98;;;0.90;91.10;;;;;;5126109;27;27536;-48
2021/01/16 16:57:20;;;;;;;35.38;19.13;;;0.80;91.10;;;;;;5125841;27;27491;-48
2021/01/16 17:00:06;;;;;;;32.30;17.77;;;0.70;91.10;;;;;;5122213;27;27486;-49
2021/01/16 17:02:51;;;;;;;33.90;19.48;;;0.70;91.20;;;;;;5122227;27;27463;-44
2021/01/16 17:05:35;;;;;;;40.70;18.42;;;0.70;91.20;;;;;;5125338;27;27477;-48
2021/01/16 17:08:20;;;;;;;33.10;18.02;;;0.60;91.40;;;;;;5126141;27;27399;-49
2021/01/16 17:11:05;;;;;;;37.83;19.13;;;0.60;91.30;;;;;;5125808;27;27488;-49
2021/01/16 17:13:49;;;;;;;35.08;19.80;;;0.50;91.40;;;;;;5125672;27;27358;-51
2021/01/16 17:16:40;;;;;;;41.33;19.67;;;0.50;91.50;;;;;;5125407;27;27434;-48
2021/01/16 17:19:26;;;;;;;35.58;20.35;;;0.50;91.50;;;;;;5125915;27;27437;-48
2021/01/16 17:22:14;;;;;;;38.42;19.95;;;0.40;91.50;;;;;;5125847;27;27883;-48
2021/01/16 17:24:58;;;;;;;35.95;19.20;;;0.40;91.50;;;;;;5123278;27;27592;-47
2021/01/16 17:27:43;;;;;;;34.58;18.40;;;0.40;91.50;;;;;;5125890;27;27319;-48
2021/01/16 17:30:28;;;;;;;36.67;17.73;;;0.30;91.70;;;;;;5125557;27;27369;-48
2021/01/16 17:33:12;;;;;;;36.72;18.35;;;0.30;91.70;;;;;;5125409;27;27336;-49
2021/01/16 17:35:57;;;;;;;31.02;17.92;;;0.30;91.60;;;;;;5125476;27;27421;-49
2021/01/16 17:38:41;;;;;;;31.02;17.92;;;0.20;91.50;;;;;;5125695;27;27347;-45
2021/01/16 17:41:39;;;;;;;36.92;17.05;;;0.20;91.40;;;;;;5125599;27;27380;-47
2021/01/16 17:44:23;;;;;;;34.35;18.25;;;0.20;91.60;;;;;;5125535;27;27389;-44
2021/01/16 17:47:11;;;;;;;37.58;18.52;;;0.10;91.60;;;;;;5125198;27;27378;-49
2021/01/16 17:49:57;;;;;;;31.58;17.13;;;0.10;91.70;;;;;;5122103;27;27410;-47
2021/01/16 17:52:41;;;;;;;34.05;16.80;;;0.00;91.60;;;;;;5124994;27;27457;-49
2021/01/16 17:55:26;;;;;;;34.55;18.30;;;0.00;91.60;;;;;;5124896;27;27462;-50
2021/01/16 17:58:10;;;;;;;32.85;18.52;;;-0.10;91.80;;;;;;5125028;27;27482;-47
2021/01/16 18:00:55;;;;;;;35.25;18.88;;;-0.10;91.90;;;;;;5125138;27;27398;-48
2021/01/16 18:03:40;;;;;;;34.92;18.45;;;-0.10;91.90;;;;;;5125335;27;27391;-50
2021/01/16 18:06:25;;;;;;;40.10;20.60;;;-0.10;91.90;;;;;;5124178;27;28026;-49
2021/01/16 18:09:10;;;;;;;37.13;19.23;;;-0.10;92.00;;;;;;5124887;27;27386;-48
2021/01/16 18:11:54;;;;;;;36.42;20.58;;;-0.20;92.10;;;;;;5124939;27;27328;-48
2021/01/16 18:14:38;;;;;;;40.40;21.25;;;-0.20;92.10;;;;;;5125191;27;27361;-43
2021/01/16 18:17:23;;;;;;;37.85;19.85;;;-0.20;92.10;;;;;;5125053;27;27365;-51
2021/01/16 18:20:08;;;;;;;36.92;19.70;;;-0.20;92.10;;;;;;5124555;27;27393;-48
2021/01/16 18:22:54;;;;;;;36.47;19.35;;;-0.20;92.20;;;;;;5124793;27;27367;-47
2021/01/16 18:25:40;;;;;;;32.95;18.73;;;-0.30;92.20;;;;;;5124904;27;27373;-48
2021/01/16 18:28:25;;;;;;;31.10;17.48;;;-0.20;92.40;;;;;;5127641;27;27946;-47
2021/01/16 18:31:10;;;;;;;34.08;18.65;;;-0.30;92.40;;;;;;5128609;27;27328;-47
2021/01/16 18:33:54;;;;;;;32.35;17.48;;;-0.30;92.30;;;;;;5127855;27;27398;-48
2021/01/16 18:36:43;;;;;;;31.83;16.48;;;-0.30;92.40;;;;;;5128557;27;27346;-47
2021/01/16 18:39:27;;;;;;;32.22;17.27;;;-0.30;92.40;;;;;;5128184;27;28070;-48
2021/01/16 18:42:12;;;;;;;32.45;16.92;;;-0.30;92.50;;;;;;5128036;27;27470;-47
2021/01/16 18:44:56;;;;;;;34.90;17.75;;;-0.30;92.60;;;;;;5128029;27;27482;-48
2021/01/16 18:47:42;;;;;;;27.00;15.43;;;-0.30;92.60;;;;;;5127792;27;27472;-48
2021/01/16 18:50:27;;;;;;;32.58;16.10;;;-0.30;92.60;;;;;;5127227;27;27868;-47
2021/01/16 18:53:14;;;;;;;30.58;17.05;;;-0.30;92.70;;;;;;5128017;27;27482;-49
2021/01/16 18:55:58;;;;;;;28.88;15.40;;;-0.30;92.70;;;;;;5128076;27;27467;-47
2021/01/16 18:58:43;;;;;;;29.25;17.13;;;-0.30;92.70;;;;;;5128259;27;27385;-47
2021/01/16 19:01:38;;;;;;;28.55;15.88;;;-0.30;92.70;;;;;;5127820;27;27413;-49
2021/01/16 19:04:22;;;;;;;29.60;15.60;;;-0.30;92.80;;;;;;5127784;27;27548;-47
2021/01/16 19:07:07;;;;;;;27.92;14.77;;;-0.30;92.80;;;;;;5126818;27;27462;-48
2021/01/16 19:09:52;;;;;;;28.70;15.40;;;-0.30;92.90;;;;;;5128032;27;27437;-51
2021/01/16 19:12:36;;;;;;;27.80;15.88;;;-0.30;92.90;;;;;;5127686;27;27414;-48
2021/01/16 19:15:22;;;;;;;28.52;14.88;;;-0.30;92.90;;;;;;5127663;27;27494;-46
2021/01/16 19:18:06;;;;;;;27.42;15.23;;;-0.30;92.90;;;;;;5127673;27;27505;-47
2021/01/16 19:20:51;;;;;;;28.77;15.18;;;-0.30;92.90;;;;;;5127610;27;27465;-47
2021/01/16 19:23:38;;;;;;;31.13;16.35;;;-0.40;92.90;;;;;;5127740;27;27411;-48
2021/01/16 19:26:23;;;;;;;28.83;15.95;;;-0.30;93.00;;;;;;5127027;27;27415;-47
2021/01/16 19:29:08;;;;;;;31.15;16.38;;;-0.30;93.00;;;;;;5127485;27;27472;-47
2021/01/16 19:31:53;;;;;;;32.33;16.67;;;-0.40;93.00;;;;;;5127451;27;27489;-48
2021/01/16 19:34:38;;;;;;;25.33;14.45;;;-0.40;93.00;;;;;;5127600;27;27460;-48
2021/01/16 19:37:23;;;;;;;27.50;15.35;;;-0.40;93.00;;;;;;5126834;27;27427;-48
2021/01/16 19:40:08;;;;;;;26.42;15.18;;;-0.30;93.00;;;;;;5127647;27;27469;-51
2021/01/16 19:42:53;;;;;;;26.98;14.65;;;-0.40;93.10;;;;;;5126970;27;27451;-47
2021/01/16 19:45:38;;;;;;;26.20;15.40;;;-0.40;93.00;;;;;;5123274;27;27459;-50
2021/01/16 19:48:23;;;;;;;27.75;15.40;;;-0.40;93.00;;;;;;5127398;27;27427;-48
2021/01/16 19:51:08;;;;;;;28.08;15.27;;;-0.40;93.00;;;;;;5127179;27;27411;-48
2021/01/16 19:53:53;;;;;;;26.80;15.05;;;-0.40;93.10;;;;;;5127326;27;27402;-51
2021/01/16 19:56:41;;;;;;;27.52;15.18;;;-0.40;93.10;;;;;;5126974;27;27930;-47
2021/01/16 19:59:26;;;;;;;26.33;14.45;;;-0.40;93.20;;;;;;5127253;27;27362;-46
2021/01/16 20:02:11;;;;;;;27.08;13.95;;;-0.40;93.20;;;;;;5127237;27;27403;-45
2021/01/16 20:04:56;;;;;;;25.48;13.90;;;-0.40;93.20;;;;;;5126725;27;27296;-44
2021/01/16 20:07:40;;;;;;;27.88;13.98;;;-0.40;93.20;;;;;;5127060;27;27984;-46
2021/01/16 20:10:25;;;;;;;23.30;13.93;;;-0.40;93.20;;;;;;5126261;27;27469;-46
2021/01/16 20:13:16;;;;;;;23.50;13.98;;;-0.40;93.30;;;;;;5126856;27;27461;-48
2021/01/16 20:16:01;;;;;;;25.60;13.60;;;-0.40;93.30;;;;;;5126975;27;27395;-48
2021/01/16 20:18:46;;;;;;;24.55;13.75;;;-0.40;93.30;;;;;;5126579;27;27430;-48
2021/01/16 20:21:30;;;;;;;21.38;12.15;;;-0.40;93.30;;;;;;5126840;27;27487;-48
2021/01/16 20:24:18;;;;;;;26.75;14.82;;;-0.40;93.30;;;;;;5126859;27;27323;-50
2021/01/16 20:27:02;;;;;;;24.00;13.15;;;-0.40;93.30;;;;;;5126174;27;27359;-46
2021/01/16 20:29:47;;;;;;;22.00;13.23;;;-0.40;93.30;;;;;;5126460;27;27499;-45
2021/01/16 20:32:36;;;;;;;27.98;14.98;;;-0.40;93.40;;;;;;5126467;27;27410;-50
2021/01/16 20:35:20;;;;;;;24.80;14.32;;;-0.40;93.40;;;;;;5126502;27;27382;-46
2021/01/16 20:38:05;;;;;;;22.60;12.50;;;-0.40;93.40;;;;;;5125776;27;27398;-47
2021/01/16 20:40:50;;;;;;;23.00;12.93;;;-0.40;93.40;;;;;;5126199;27;27880;-43
2021/01/16 20:43:34;;;;;;;22.90;13.07;;;-0.40;93.50;;;;;;5126467;27;27496;-48
2021/01/16 20:46:19;;;;;;;23.27;13.45;;;-0.40;93.40;;;;;;5126347;27;27459;-46
2021/01/16 20:49:04;;;;;;;22.35;12.68;;;-0.40;93.50;;;;;;5121887;27;27399;-46
2021/01/16 20:51:51;;;;;;;23.38;12.68;;;-0.40;93.40;;;;;;5126385;27;27508;-47
2021/01/16 20:54:36;;;;;;;23.40;13.02;;;-0.40;93.50;;;;;;5126330;27;27389;-46
2021/01/16 20:57:21;;;;;;;23.77;14.40;;;-0.40;93.60;;;;;;5126091;27;27398;-48
2021/01/16 21:00:06;;;;;;;24.27;12.95;;;-0.40;93.50;;;;;;5126149;27;27398;-48
2021/01/16 21:02:51;;;;;;;26.23;14.10;;;-0.40;93.60;;;;;;5126057;27;27336;-50
2021/01/16 21:05:35;;;;;;;24.50;14.27;;;-0.40;93.50;;;;;;5125141;27;27421;-47
2021/01/16 21:08:20;;;;;;;26.48;14.32;;;-0.40;93.50;;;;;;5126193;27;27456;-47
2021/01/16 21:11:04;;;;;;;25.20;13.70;;;-0.40;93.40;;;;;;5125845;27;27451;-48
2021/01/16 21:13:49;;;;;;;31.10;15.93;;;-0.40;93.40;;;;;;5126020;27;27986;-48
2021/01/16 21:16:35;;;;;;;26.33;14.60;;;-0.40;93.40;;;;;;5122679;27;27374;-45
2021/01/16 21:19:20;;;;;;;27.40;15.05;;;-0.40;93.50;;;;;;5125220;27;27397;-47
2021/01/16 21:22:04;;;;;;;27.42;15.13;;;-0.40;93.50;;;;;;5126005;27;27472;-47
2021/01/16 21:24:49;;;;;;;29.58;15.20;;;-0.40;93.40;;;;;;5125934;27;27521;-47
2021/01/16 21:27:34;;;;;;;30.70;16.65;;;-0.40;93.20;;;;;;5125563;27;27476;-49
2021/01/16 21:30:19;;;;;;;28.23;16.20;;;-0.40;93.20;;;;;;5121896;27;27461;-49
2021/01/16 21:33:04;;;;;;;29.98;16.17;;;-0.40;93.20;;;;;;5125020;27;27480;-48
2021/01/16 21:35:48;;;;;;;32.13;17.25;;;-0.40;93.40;;;;;;5125489;27;27464;-49
2021/01/16 21:38:33;;;;;;;31.10;16.25;;;-0.40;93.40;;;;;;5122106;27;27399;-48
2021/01/16 21:41:18;;;;;;;30.77;17.40;;;-0.40;93.50;;;;;;5125402;27;26906;-49
2021/01/16 21:44:04;;;;;;;37.55;19.33;;;-0.40;93.50;;;;;;5124931;27;27406;-50
2021/01/16 21:46:48;;;;;;;33.10;18.35;;;-0.40;93.60;;;;;;5125080;27;27506;-49
2021/01/16 21:49:33;;;;;;;38.95;19.45;;;-0.50;93.60;;;;;;5125209;27;27487;-47
2021/01/16 21:52:17;;;;;;;30.15;16.27;;;-0.40;93.60;;;;;;5125581;27;27422;-47
2021/01/16 21:55:02;;;;;;;30.10;17.48;;;-0.40;93.60;;;;;;5125136;27;27429;-49
2021/01/16 21:57:48;;;;;;;33.20;17.48;;;-0.40;93.50;;;;;;5125324;27;27994;-47
2021/01/16 22:00:33;;;;;;;33.20;18.50;;;-0.40;93.60;;;;;;5124403;27;27416;-50
2021/01/16 22:03:17;;;;;;;36.40;17.55;;;-0.40;93.60;;;;;;5125094;27;27419;-50
2021/01/16 22:06:02;;;;;;;32.25;17.85;;;-0.40;93.60;;;;;;5122488;27;27468;-48
2021/01/16 22:08:46;;;;;;;31.67;18.25;;;-0.40;93.70;;;;;;5125241;27;28069;-48
2021/01/16 22:11:31;;;;;;;34.63;18.23;;;-0.40;93.70;;;;;;5121833;27;27409;-47
2021/01/16 22:14:16;;;;;;;32.88;17.83;;;-0.40;93.70;;;;;;5124920;27;27352;-50
2021/01/16 22:17:01;;;;;;;33.60;18.27;;;-0.30;93.60;;;;;;5124444;27;27447;-50
2021/01/16 22:19:46;;;;;;;35.90;17.73;;;-0.30;93.70;;;;;;5124852;27;27459;-48
2021/01/16 22:22:31;;;;;;;36.00;17.73;;;-0.30;93.70;;;;;;5125131;27;27467;-47
2021/01/16 22:25:16;;;;;;;33.80;17.85;;;-0.40;93.70;;;;;;5124700;27;27432;-48
2021/01/16 22:28:00;;;;;;;31.95;17.30;;;-0.40;93.70;;;;;;5121519;27;27332;-48
2021/01/16 22:30:45;;;;;;;31.20;16.80;;;-0.30;93.80;;;;;;5124988;27;27344;-48
2021/01/16 22:33:29;;;;;;;32.88;16.75;;;-0.30;93.80;;;;;;5124975;27;27396;-49
2021/01/16 22:36:13;;;;;;;33.58;17.10;;;-0.30;93.80;;;;;;5125003;27;27384;-48
2021/01/16 22:38:58;;;;;;;40.25;19.00;;;-0.30;93.90;;;;;;5125000;27;27339;-47
2021/01/16 22:41:42;;;;;;;37.25;19.08;;;-0.30;93.90;;;;;;5124629;27;27363;-47
2021/01/16 22:44:27;;;;;;;36.53;19.10;;;-0.30;93.90;;;;;;5124533;27;27498;-48
2021/01/16 22:47:11;;;;;;;37.65;19.05;;;-0.30;93.90;;;;;;5124548;27;27412;-48
2021/01/16 22:49:56;;;;;;;32.42;18.08;;;-0.30;93.90;;;;;;5124867;27;27373;-47
2021/01/16 22:52:44;;;;;;;40.60;19.27;;;-0.30;94.00;;;;;;5124529;27;27394;-48
2021/01/16 22:55:28;;;;;;;33.40;17.48;;;-0.30;94.00;;;;;;5124471;27;27409;-47
2021/01/16 22:58:13;;;;;;;40.25;18.88;;;-0.30;94.00;;;;;;5124783;27;27449;-49
2021/01/16 23:00:57;;;;;;;36.38;18.52;;;-0.20;94.00;;;;;;5124682;27;27331;-49
2021/01/16 23:03:42;;;;;;;32.72;17.15;;;-0.20;94.00;;;;;;5124281;27;27389;-48
2021/01/16 23:06:27;;;;;;;32.30;16.13;;;-0.20;94.00;;;;;;5123442;27;27405;-49
2021/01/16 23:09:11;;;;;;;33.80;17.02;;;-0.20;94.00;;;;;;5124290;27;27355;-47
2021/01/16 23:11:56;;;;;;;33.58;17.15;;;-0.20;94.00;;;;;;5124270;27;27327;-48
2021/01/16 23:14:41;;;;;;;29.05;15.65;;;-0.20;94.00;;;;;;5127759;27;27391;-48
2021/01/16 23:17:26;;;;;;;29.73;16.55;;;-0.20;94.10;;;;;;5127968;27;27441;-52
2021/01/16 23:20:15;;;;;;;34.97;17.02;;;-0.20;94.00;;;;;;5127546;27;27389;-47
2021/01/16 23:22:59;;;;;;;29.17;16.58;;;-0.20;94.00;;;;;;5127931;27;27362;-47
2021/01/16 23:25:47;;;;;;;29.38;16.27;;;-0.20;94.10;;;;;;5127773;27;27880;-47
2021/01/16 23:28:33;;;;;;;30.75;16.52;;;-0.20;94.10;;;;;;5127801;27;27393;-47
2021/01/16 23:31:17;;;;;;;29.50;16.17;;;-0.10;94.10;;;;;;5127909;27;27443;-47
2021/01/16 23:34:02;;;;;;;27.80;15.40;;;-0.20;94.50;;;;;;5127458;27;27319;-48
2021/01/16 23:36:46;;;;;;;31.40;15.18;;;-0.10;94.20;;;;;;5127682;27;27483;-47
2021/01/16 23:39:31;;;;;;;29.13;14.35;;;-0.20;94.20;;;;;;5124331;27;27446;-48
2021/01/16 23:42:15;;;;;;;29.98;16.23;;;-0.10;94.20;;;;;;5127662;27;27332;-47
2021/01/16 23:45:00;;;;;;;27.85;15.50;;;-0.10;94.30;;;;;;5127234;27;27397;-47
2021/01/16 23:47:45;;;;;;;30.27;16.17;;;-0.10;94.30;;;;;;5126936;27;27390;-48
2021/01/16 23:50:30;;;;;;;29.67;15.43;;;-0.10;94.20;;;;;;5127479;27;27377;-47
2021/01/16 23:53:15;;;;;;;26.50;14.60;;;-0.10;94.10;;;;;;5124206;27;27351;-48
2021/01/16 23:56:00;;;;;;;29.48;15.30;;;-0.10;94.10;;;;;;5127126;27;27362;-47
2021/01/16 23:58:44;;;;;;;28.05;15.32;;;-0.10;94.10;;;;;;5126999;27;27409;-47
